Time;durP1;ratioP1;P1;durP2;ratioP2;P2;SDS_P1;SDS_P2;PMS_P1;PMS_P2;Temp;Humidity;BMP_temperature;BMP_pressure;BME280_temperature;BME280_humidity;BME280_pressure;Samples;Min_cycle;Max_cycle;Signal;HPM_P1;HPM_P2
2022/05/12 00:00:50;;;;;;;4.47;1.30;;;21.50;76.70;;;;;;5042568;23;20331;-60
2022/05/12 00:02:53;;;;;;;3.95;1.30;;;21.60;76.80;;;;;;5099802;23;20138;-61
2022/05/12 00:04:55;;;;;;;3.05;1.08;;;21.50;76.70;;;;;;5097315;23;20052;-60
2022/05/12 00:06:58;;;;;;;1.55;0.80;;;21.60;76.80;;;;;;5095646;23;20064;-60
2022/05/12 00:09:10;;;;;;;;;;;21.60;76.70;;;;;;5117710;23;20285;-61
2022/05/12 00:11:16;;;;;;;3.58;1.52;;;21.60;76.70;;;;;;5100418;23;19936;-57
2022/05/12 00:13:18;;;;;;;2.53;1.30;;;21.60;76.60;;;;;;5124161;23;20078;-62
2022/05/12 00:15:25;;;;;;;5.15;1.38;;;21.60;76.60;;;;;;5119169;23;20489;-62
2022/05/12 00:17:27;;;;;;;5.18;1.27;;;21.70;76.50;;;;;;5095552;23;20037;-60
2022/05/12 00:19:30;;;;;;;2.83;1.30;;;21.60;76.40;;;;;;5098660;23;20052;-60
2022/05/12 00:21:33;;;;;;;2.03;1.23;;;21.70;76.40;;;;;;5102653;23;20032;-59
2022/05/12 00:23:35;;;;;;;6.38;1.45;;;21.70;76.40;;;;;;5072745;23;20288;-60
2022/05/12 00:25:37;;;;;;;2.40;0.90;;;21.70;76.40;;;;;;5100731;23;20502;-59
2022/05/12 00:27:40;;;;;;;2.25;0.98;;;21.70;76.40;;;;;;5101330;23;20453;-61
2022/05/12 00:29:42;;;;;;;2.60;1.30;;;21.70;76.40;;;;;;5100881;23;20028;-59
2022/05/12 00:31:46;;;;;;;1.83;1.08;;;21.80;76.40;;;;;;5096414;23;20032;-60
2022/05/12 00:33:49;;;;;;;3.03;1.17;;;21.70;76.30;;;;;;5097204;23;20021;-60
2022/05/12 00:35:51;;;;;;;3.47;1.27;;;21.70;76.30;;;;;;5099950;23;20032;-60
2022/05/12 00:37:53;;;;;;;3.55;1.13;;;21.80;76.40;;;;;;5068133;23;20025;-59
2022/05/12 00:39:55;;;;;;;3.67;1.27;;;21.70;76.20;;;;;;5095478;23;20082;-60
2022/05/12 00:41:57;;;;;;;3.33;1.55;;;21.70;76.30;;;;;;5074569;23;20622;-58
2022/05/12 00:44:02;;;;;;;2.08;1.30;;;21.80;76.30;;;;;;5073947;23;20559;-60
2022/05/12 00:46:10;;;;;;;4.28;1.30;;;21.80;76.20;;;;;;5095172;23;20338;-59
2022/05/12 00:48:12;;;;;;;1.67;0.98;;;21.80;76.70;;;;;;5069824;23;20033;-53
2022/05/12 00:50:16;;;;;;;2.55;1.05;;;21.80;76.30;;;;;;5096551;23;20029;-58
2022/05/12 00:52:26;;;;;;;3.28;1.10;;;21.80;76.30;;;;;;5049709;23;20074;-58
2022/05/12 00:54:37;;;;;;;2.13;0.90;;;21.80;76.10;;;;;;5073030;23;20169;-59
2022/05/12 00:56:40;;;;;;;4.70;1.35;;;21.80;76.10;;;;;;5069249;23;20525;-59
2022/05/12 00:58:42;;;;;;;3.50;1.23;;;21.90;76.00;;;;;;5065311;23;20097;-59
2022/05/12 01:00:45;;;;;;;3.80;1.23;;;21.90;76.00;;;;;;5093848;23;20043;-60
2022/05/12 01:02:50;;;;;;;2.45;1.10;;;21.90;76.20;;;;;;5071855;23;20029;-57
2022/05/12 01:04:57;;;;;;;5.20;1.70;;;21.90;76.20;;;;;;5069859;23;20456;-53
2022/05/12 01:06:59;;;;;;;5.40;1.40;;;21.90;76.20;;;;;;5093000;23;20029;-54
2022/05/12 01:09:02;;;;;;;2.83;1.23;;;21.90;76.30;;;;;;5092456;23;20099;-49
2022/05/12 01:11:16;;;;;;;5.97;1.67;;;21.90;76.20;;;;;;5072960;23;20148;-49
2022/05/12 01:13:19;;;;;;;2.83;1.20;;;21.90;76.20;;;;;;5096998;23;20028;-52
2022/05/12 01:15:24;;;;;;;2.65;0.80;;;21.90;76.10;;;;;;5098101;23;20043;-50
2022/05/12 01:17:26;;;;;;;3.47;1.17;;;22.00;76.10;;;;;;5066972;23;20659;-50
2022/05/12 01:19:33;;;;;;;2.15;1.00;;;22.00;76.10;;;;;;5093235;23;20467;-48
2022/05/12 01:21:35;;;;;;;2.50;1.02;;;22.00;76.00;;;;;;5097095;23;20094;-52
2022/05/12 01:23:39;;;;;;;1.77;0.93;;;22.00;75.90;;;;;;5072553;23;20597;-52
2022/05/12 01:25:41;;;;;;;3.35;1.10;;;22.00;76.00;;;;;;5094059;23;20025;-51
2022/05/12 01:27:44;;;;;;;4.63;1.42;;;22.00;75.90;;;;;;5094697;23;20043;-51
2022/05/12 01:29:49;;;;;;;6.82;0.80;;;22.00;75.80;;;;;;5100977;23;20029;-51
2022/05/12 01:31:51;;;;;;;2.80;0.90;;;22.00;75.80;;;;;;5097461;23;20047;-54
2022/05/12 01:33:53;;;;;;;2.08;0.90;;;22.00;75.70;;;;;;5093313;23;20024;-57
2022/05/12 01:35:56;;;;;;;2.90;1.02;;;22.00;75.70;;;;;;5096812;23;20036;-56
2022/05/12 01:37:58;;;;;;;1.20;0.70;;;22.10;75.60;;;;;;5099997;23;20384;-51
2022/05/12 01:40:00;;;;;;;1.83;0.93;;;22.10;75.50;;;;;;5094469;23;20492;-52
2022/05/12 01:42:04;;;;;;;1.67;0.90;;;22.10;75.50;;;;;;5094457;23;20028;-49
2022/05/12 01:44:06;;;;;;;1.67;0.95;;;22.10;75.50;;;;;;5098393;23;20388;-48
2022/05/12 01:46:09;;;;;;;1.90;0.83;;;22.10;75.40;;;;;;5096521;23;20383;-52
2022/05/12 01:48:13;;;;;;;2.53;0.90;;;22.10;75.30;;;;;;5096008;23;20024;-55
2022/05/12 01:50:16;;;;;;;1.98;0.93;;;22.10;75.30;;;;;;5093630;23;20082;-53
2022/05/12 01:52:18;;;;;;;7.03;1.20;;;22.10;75.20;;;;;;5100180;23;20024;-50
2022/05/12 01:54:21;;;;;;;1.20;0.77;;;22.20;75.30;;;;;;5094312;23;20993;-56
2022/05/12 01:56:23;;;;;;;1.20;0.80;;;22.20;75.30;;;;;;5094785;23;20032;-48
2022/05/12 01:58:26;;;;;;;1.77;0.77;;;22.20;75.20;;;;;;5098791;23;20028;-47
2022/05/12 02:00:30;;;;;;;3.63;1.25;;;22.20;74.90;;;;;;5097796;23;20144;-50
2022/05/12 02:02:33;;;;;;;3.90;1.30;;;22.20;74.20;;;;;;5094293;23;20091;-49
2022/05/12 02:04:35;;;;;;;3.17;1.70;;;22.20;74.10;;;;;;5069301;23;20644;-51
2022/05/12 02:06:37;;;;;;;4.65;1.70;;;22.20;74.70;;;;;;5100550;23;20453;-54
2022/05/12 02:08:40;;;;;;;4.15;1.80;;;22.20;75.70;;;;;;5096089;23;20479;-54
2022/05/12 02:10:45;;;;;;;3.90;1.58;;;22.20;75.60;;;;;;5096968;23;20032;-49
2022/05/12 02:12:48;;;;;;;4.18;1.58;;;22.20;75.50;;;;;;5069846;23;20100;-54
2022/05/12 02:14:50;;;;;;;3.40;1.58;;;22.20;75.60;;;;;;5101545;23;20039;-52
2022/05/12 02:16:52;;;;;;;3.53;1.33;;;22.20;75.40;;;;;;5095528;23;20135;-57
2022/05/12 02:18:55;;;;;;;6.00;1.58;;;22.20;75.00;;;;;;5095197;23;20036;-53
2022/05/12 02:20:58;;;;;;;10.00;1.60;;;22.20;75.00;;;;;;5101028;23;20024;-63
2022/05/12 02:23:00;;;;;;;7.40;1.50;;;22.20;75.30;;;;;;5095854;23;20184;-62
2022/05/12 02:25:02;;;;;;;4.45;1.17;;;22.20;75.30;;;;;;5069653;23;20029;-56
2022/05/12 02:27:05;;;;;;;4.95;1.50;;;22.20;75.20;;;;;;5096402;23;20039;-49
2022/05/12 02:29:07;;;;;;;7.25;1.80;;;22.20;75.20;;;;;;5098916;23;20064;-58
2022/05/12 02:31:09;;;;;;;4.25;1.25;;;22.20;75.40;;;;;;5096774;23;20689;-58
2022/05/12 02:33:11;;;;;;;3.53;1.45;;;22.20;75.60;;;;;;5092654;23;20024;-56
2022/05/12 02:35:15;;;;;;;4.20;1.20;;;22.30;75.60;;;;;;5100181;23;20393;-58
2022/05/12 02:37:17;;;;;;;5.10;1.35;;;22.30;75.70;;;;;;5095933;23;20838;-55
2022/05/12 02:39:19;;;;;;;3.83;1.20;;;22.30;75.70;;;;;;5095013;23;20094;-56
2022/05/12 02:41:21;;;;;;;3.20;1.23;;;22.30;75.50;;;;;;5095804;23;20503;-59
2022/05/12 02:43:23;;;;;;;3.42;1.33;;;22.30;75.50;;;;;;5100373;23;20667;-59
2022/05/12 02:45:28;;;;;;;3.17;1.20;;;22.30;75.50;;;;;;5066765;23;20040;-59
2022/05/12 02:47:31;;;;;;;3.47;1.20;;;22.30;75.50;;;;;;5095809;23;20501;-59
2022/05/12 02:49:33;;;;;;;1.10;0.80;;;22.30;75.40;;;;;;5074377;23;20047;-60
2022/05/12 02:51:35;;;;;;;2.57;1.30;;;22.30;75.30;;;;;;5097812;23;20024;-59
2022/05/12 02:53:38;;;;;;;5.43;1.03;;;22.30;75.20;;;;;;5094992;23;20032;-57
2022/05/12 02:55:41;;;;;;;2.92;1.25;;;22.40;75.40;;;;;;5097813;23;20282;-58
2022/05/12 02:57:43;;;;;;;3.00;1.20;;;22.40;76.10;;;;;;5099623;23;20028;-58
2022/05/12 02:59:45;;;;;;;2.63;0.87;;;22.40;75.40;;;;;;5096706;23;20345;-55
2022/05/12 03:01:47;;;;;;;2.03;1.00;;;22.40;75.30;;;;;;5093715;23;20055;-58
2022/05/12 03:03:49;;;;;;;2.92;0.93;;;22.40;75.30;;;;;;5098393;23;20039;-55
2022/05/12 03:05:53;;;;;;;2.38;0.80;;;22.40;75.10;;;;;;5091930;23;20922;-59
2022/05/12 03:07:55;;;;;;;5.70;1.50;;;22.40;75.10;;;;;;5065503;23;20286;-58
2022/05/12 03:09:58;;;;;;;3.95;1.30;;;22.50;75.00;;;;;;5072625;23;20121;-56
2022/05/12 03:12:00;;;;;;;3.05;0.93;;;22.40;75.20;;;;;;5099014;23;20028;-54
2022/05/12 03:14:03;;;;;;;5.07;1.20;;;22.40;75.30;;;;;;5093632;23;20523;-59
2022/05/12 03:16:06;;;;;;;2.30;1.20;;;22.50;75.30;;;;;;5067511;23;20033;-57
2022/05/12 03:18:08;;;;;;;3.55;1.45;;;22.50;75.20;;;;;;5071624;23;20029;-55
2022/05/12 03:20:12;;;;;;;4.43;1.30;;;22.50;75.20;;;;;;5040562;23;20053;-56
2022/05/12 03:22:16;;;;;;;3.03;1.35;;;22.50;75.20;;;;;;5093493;23;20060;-56
2022/05/12 03:24:18;;;;;;;;;;;22.50;75.30;;;;;;5096225;23;20043;-52
2022/05/12 03:26:22;;;;;;;3.22;1.38;;;22.50;75.30;;;;;;5099885;23;20380;-55
2022/05/12 03:28:24;;;;;;;3.75;1.20;;;22.40;75.40;;;;;;5095231;23;20029;-58
2022/05/12 03:30:27;;;;;;;2.92;0.93;;;22.50;75.40;;;;;;5093960;23;20047;-56
2022/05/12 03:32:30;;;;;;;2.28;1.00;;;22.50;75.40;;;;;;5099688;23;20449;-54
2022/05/12 03:34:32;;;;;;;3.10;1.20;;;22.40;75.40;;;;;;5095886;23;20272;-58
2022/05/12 03:36:39;;;;;;;4.38;1.33;;;22.50;75.50;;;;;;5092396;23;20490;-57
2022/05/12 03:38:41;;;;;;;1.75;1.10;;;22.50;76.10;;;;;;5094085;23;20036;-55
2022/05/12 03:40:44;;;;;;;4.25;1.10;;;22.50;75.30;;;;;;5099084;23;20843;-54
2022/05/12 03:42:46;;;;;;;2.50;1.35;;;22.50;75.20;;;;;;5091486;23;20154;-53
2022/05/12 03:44:54;;;;;;;2.70;1.17;;;22.60;75.20;;;;;;5092215;23;20119;-57
2022/05/12 03:46:56;;;;;;;3.42;1.00;;;22.60;75.00;;;;;;5096740;23;20163;-57
2022/05/12 03:49:02;;;;;;;2.50;1.15;;;22.60;74.90;;;;;;5102271;23;20079;-57
2022/05/12 03:51:05;;;;;;;2.35;0.90;;;22.60;74.90;;;;;;5098122;23;20033;-57
2022/05/12 03:53:07;;;;;;;2.70;0.98;;;22.60;75.70;;;;;;5070307;23;20381;-58
2022/05/12 03:55:16;;;;;;;2.58;1.08;;;22.60;75.00;;;;;;5093450;23;20121;-53
2022/05/12 03:57:19;;;;;;;4.35;1.10;;;22.60;75.10;;;;;;5069519;23;20029;-57
2022/05/12 03:59:21;;;;;;;2.80;1.13;;;22.60;75.20;;;;;;5099048;23;20603;-57
2022/05/12 04:01:23;;;;;;;2.92;1.02;;;22.60;75.10;;;;;;5093992;23;20763;-56
2022/05/12 04:03:26;;;;;;;2.25;0.82;;;22.60;75.10;;;;;;5065635;23;20029;-59
2022/05/12 04:05:31;;;;;;;;;;;22.60;75.00;;;;;;5098820;23;20512;-57
2022/05/12 04:07:33;;;;;;;3.00;1.23;;;22.70;75.00;;;;;;5095468;23;21027;-53
2022/05/12 04:09:35;;;;;;;2.58;0.90;;;22.70;75.00;;;;;;5095127;23;20226;-57
2022/05/12 04:11:37;;;;;;;3.70;1.23;;;22.70;75.00;;;;;;5092121;23;20078;-57
2022/05/12 04:13:41;;;;;;;1.97;0.87;;;22.70;75.10;;;;;;5074455;23;20060;-55
2022/05/12 04:15:42;;;;;;;;;;;22.70;75.00;;;;;;5069131;23;20076;-60
2022/05/12 04:17:46;;;;;;;1.33;0.68;;;22.70;75.00;;;;;;5094015;23;19947;-60
2022/05/12 04:19:50;;;;;;;2.65;1.05;;;22.70;75.10;;;;;;5099597;23;20095;-57
2022/05/12 04:21:55;;;;;;;4.28;1.10;;;22.70;75.10;;;;;;5071553;23;20033;-59
2022/05/12 04:23:57;;;;;;;1.77;1.00;;;22.70;75.10;;;;;;5095322;23;20351;-60
2022/05/12 04:25:59;;;;;;;2.75;1.13;;;22.70;75.10;;;;;;5093954;23;20106;-58
2022/05/12 04:28:03;;;;;;;2.63;1.10;;;22.70;75.10;;;;;;5099901;23;20035;-59
2022/05/12 04:30:08;;;;;;;3.25;1.25;;;22.70;75.10;;;;;;5130338;23;20036;-59
2022/05/12 04:32:15;;;;;;;2.83;0.82;;;22.70;75.20;;;;;;5111371;23;20041;-56
2022/05/12 04:37:28;;;;;;;2.25;0.98;;;22.70;75.10;;;;;;5134948;23;20034;-59
2022/05/12 04:39:31;;;;;;;3.75;1.38;;;22.70;75.10;;;;;;5101371;23;20024;-58
2022/05/12 04:41:33;;;;;;;3.22;0.95;;;22.70;75.10;;;;;;5070390;23;20118;-58
2022/05/12 04:43:36;;;;;;;2.80;1.10;;;22.70;75.80;;;;;;5073782;23;20120;-58
2022/05/12 04:45:38;;;;;;;2.28;1.10;;;22.70;75.10;;;;;;5073321;23;20044;-52
2022/05/12 04:47:41;;;;;;;2.25;0.82;;;22.70;75.10;;;;;;5067971;23;20555;-62
2022/05/12 04:49:43;;;;;;;2.55;1.27;;;22.80;75.20;;;;;;5093511;23;20123;-59
2022/05/12 04:51:45;;;;;;;1.55;1.02;;;22.70;75.10;;;;;;5067747;23;20095;-57
2022/05/12 04:53:48;;;;;;;2.85;1.17;;;22.70;75.20;;;;;;5097805;23;20531;-58
2022/05/12 04:55:50;;;;;;;2.72;1.10;;;22.80;75.20;;;;;;5094577;23;20379;-53
2022/05/12 04:57:56;;;;;;;1.90;1.05;;;22.80;75.20;;;;;;5066121;23;20273;-55
2022/05/12 04:59:59;;;;;;;4.95;1.50;;;22.80;75.20;;;;;;5098362;23;20035;-53
2022/05/12 05:02:01;;;;;;;3.08;0.88;;;22.80;75.20;;;;;;5067465;23;20115;-56
2022/05/12 05:04:03;;;;;;;3.72;0.90;;;22.80;75.20;;;;;;5063707;23;20635;-59
2022/05/12 05:06:06;;;;;;;3.08;1.30;;;22.80;75.10;;;;;;5068248;23;20109;-59
2022/05/12 05:08:12;;;;;;;6.18;1.40;;;22.80;74.90;;;;;;5095048;23;20678;-60
2022/05/12 05:10:15;;;;;;;3.92;1.70;;;22.90;74.30;;;;;;5091050;23;20531;-59
2022/05/12 05:12:17;;;;;;;4.35;1.60;;;22.80;74.10;;;;;;5090546;23;20457;-58
2022/05/12 05:14:20;;;;;;;8.95;2.10;;;22.70;74.20;;;;;;5091590;23;20099;-54
2022/05/12 05:16:23;;;;;;;8.25;2.20;;;22.70;74.10;;;;;;5095174;23;20036;-59
2022/05/12 05:18:24;;;;;;;;;;;22.70;74.10;;;;;;5065635;23;20099;-58
2022/05/12 05:20:28;;;;;;;5.82;1.92;;;22.70;74.20;;;;;;5090973;23;19958;-58
2022/05/12 05:22:32;;;;;;;5.45;2.20;;;22.60;74.50;;;;;;5071664;23;20522;-56
2022/05/12 05:24:36;;;;;;;5.00;1.90;;;22.70;74.70;;;;;;5094312;23;20386;-58
2022/05/12 05:26:38;;;;;;;6.03;1.85;;;22.70;74.90;;;;;;5092470;23;20609;-58
2022/05/12 05:28:40;;;;;;;4.32;1.80;;;22.60;75.00;;;;;;5091859;23;20032;-58
2022/05/12 05:30:42;;;;;;;3.95;1.73;;;22.70;75.20;;;;;;5093768;23;20314;-55
2022/05/12 05:32:46;;;;;;;5.50;1.98;;;22.70;75.10;;;;;;5092440;23;20111;-55
2022/05/12 05:34:48;;;;;;;4.45;1.60;;;22.70;75.20;;;;;;5089583;23;20452;-58
2022/05/12 05:36:50;;;;;;;5.28;1.88;;;22.70;75.20;;;;;;5069816;23;20029;-58
2022/05/12 05:38:52;;;;;;;3.63;1.83;;;22.70;75.20;;;;;;5092698;23;20536;-56
2022/05/12 05:40:55;;;;;;;4.20;1.85;;;22.70;75.20;;;;;;5090600;23;20025;-57
2022/05/12 05:42:58;;;;;;;3.67;1.40;;;22.70;75.20;;;;;;5095576;23;20044;-58
2022/05/12 05:45:00;;;;;;;6.20;1.98;;;22.70;75.10;;;;;;5069085;23;20525;-59
2022/05/12 05:47:03;;;;;;;4.97;1.45;;;22.70;75.20;;;;;;5066871;23;20114;-59
2022/05/12 05:49:05;;;;;;;;;;;22.80;75.20;;;;;;5092740;23;20524;-59
2022/05/12 05:53:30;;;;;;;3.70;1.40;;;22.80;75.40;;;;;;5065453;23;20403;-57
2022/05/12 05:55:33;;;;;;;3.63;1.48;;;22.80;75.40;;;;;;5071927;23;20036;-60
2022/05/12 05:57:36;;;;;;;4.03;1.83;;;22.80;75.50;;;;;;5066309;23;20051;-58
2022/05/12 05:59:38;;;;;;;2.97;1.38;;;22.80;75.50;;;;;;5064532;23;20124;-59
2022/05/12 06:01:41;;;;;;;4.32;1.98;;;22.80;75.60;;;;;;5096460;23;20031;-59
2022/05/12 06:03:43;;;;;;;3.70;1.88;;;22.80;75.70;;;;;;5095099;23;20024;-59
2022/05/12 06:05:46;;;;;;;2.83;1.60;;;22.80;75.70;;;;;;5063764;23;20523;-59
2022/05/12 06:07:49;;;;;;;4.18;1.42;;;22.80;75.70;;;;;;5066191;23;20029;-57
2022/05/12 06:09:52;;;;;;;5.60;1.70;;;22.90;75.80;;;;;;5069302;23;20768;-58
2022/05/12 06:11:54;;;;;;;4.03;1.73;;;22.90;75.90;;;;;;5093191;23;20443;-54
2022/05/12 06:13:56;;;;;;;3.55;1.63;;;22.80;75.90;;;;;;5063613;23;20144;-56
2022/05/12 06:15:59;;;;;;;3.80;1.48;;;22.80;75.90;;;;;;5068110;23;20120;-57
2022/05/12 06:18:05;;;;;;;4.25;1.67;;;22.90;76.00;;;;;;5093092;23;20395;-54
2022/05/12 06:20:12;;;;;;;4.03;1.70;;;22.90;76.00;;;;;;5092658;23;20024;-58
2022/05/12 06:22:14;;;;;;;3.60;1.40;;;22.90;76.00;;;;;;5091980;23;20280;-57
2022/05/12 06:24:16;;;;;;;6.00;1.92;;;22.90;76.20;;;;;;5092616;23;20215;-58
2022/05/12 06:26:20;;;;;;;3.65;1.60;;;22.90;76.20;;;;;;5096896;23;20129;-58
2022/05/12 06:28:22;;;;;;;4.80;1.77;;;22.90;76.30;;;;;;5063042;23;20266;-57
2022/05/12 06:30:24;;;;;;;3.03;1.00;;;22.90;76.20;;;;;;5066203;23;20037;-57
2022/05/12 06:32:26;;;;;;;3.47;1.45;;;22.90;76.30;;;;;;5096971;23;20200;-54
2022/05/12 06:34:28;;;;;;;4.63;1.48;;;22.90;76.40;;;;;;5066305;23;20450;-52
2022/05/12 06:36:31;;;;;;;3.78;1.52;;;22.90;76.30;;;;;;5090997;23;20035;-58
2022/05/12 06:38:34;;;;;;;6.90;1.73;;;22.90;76.30;;;;;;5093597;23;20522;-56
2022/05/12 06:40:36;;;;;;;4.32;1.60;;;22.90;76.30;;;;;;5076638;23;20033;-58
2022/05/12 06:42:41;;;;;;;3.50;1.42;;;22.90;76.40;;;;;;5042232;23;20025;-58
2022/05/12 06:44:44;;;;;;;6.45;1.95;;;22.90;76.40;;;;;;5087184;23;20029;-57
2022/05/12 06:46:46;;;;;;;5.68;1.88;;;22.90;76.40;;;;;;5095568;23;20032;-54
2022/05/12 06:48:50;;;;;;;4.28;1.60;;;22.90;76.50;;;;;;5095379;23;20558;-55
2022/05/12 06:50:53;;;;;;;3.70;1.73;;;22.90;76.50;;;;;;5090412;23;20024;-55
2022/05/12 06:52:56;;;;;;;6.93;1.57;;;22.90;76.50;;;;;;5064089;23;20587;-55
2022/05/12 06:54:58;;;;;;;4.53;1.63;;;22.90;76.60;;;;;;5069678;23;20468;-59
2022/05/12 06:57:00;;;;;;;5.90;1.65;;;22.90;76.50;;;;;;5063671;23;21020;-55
2022/05/12 06:59:03;;;;;;;5.32;1.50;;;22.90;76.50;;;;;;5090552;23;20281;-57
2022/05/12 07:01:06;;;;;;;4.10;1.38;;;22.90;76.60;;;;;;5096526;23;20108;-58
2022/05/12 07:03:11;;;;;;;6.03;1.50;;;22.90;76.50;;;;;;5096760;23;20570;-58
2022/05/12 07:05:15;;;;;;;3.50;1.60;;;22.90;76.50;;;;;;5090795;23;20033;-59
2022/05/12 07:07:17;;;;;;;3.47;1.30;;;22.90;76.50;;;;;;5092086;23;20038;-58
2022/05/12 07:09:20;;;;;;;4.50;1.40;;;23.00;76.50;;;;;;5073784;23;20075;-59
2022/05/12 07:11:23;;;;;;;4.65;1.70;;;23.00;76.50;;;;;;5097863;23;20286;-58
2022/05/12 07:13:25;;;;;;;6.15;1.73;;;23.00;76.50;;;;;;5094191;23;20079;-59
2022/05/12 07:15:28;;;;;;;4.28;1.35;;;23.00;76.50;;;;;;5093410;23;20032;-59
2022/05/12 07:17:30;;;;;;;3.40;1.75;;;23.00;76.40;;;;;;5071887;23;20024;-58
2022/05/12 07:19:33;;;;;;;4.37;1.60;;;23.00;76.20;;;;;;5068341;23;20405;-57
2022/05/12 07:28:37;;;;;;;3.28;1.40;;;23.10;76.50;;;;;;5097732;23;20134;-55
2022/05/12 07:31:24;;;;;;;4.75;1.50;;;23.00;76.40;;;;;;5095282;23;20020;-55
2022/05/12 07:33:01;;;;;;;2.80;1.25;;;23.00;76.40;;;;;;5080443;23;20334;-55
2022/05/12 07:35:05;;;;;;;3.92;1.65;;;23.00;76.50;;;;;;5098021;23;20120;-56
2022/05/12 07:37:07;;;;;;;3.30;1.30;;;23.00;76.40;;;;;;5089323;23;20032;-55
2022/05/12 07:39:12;;;;;;;5.10;1.50;;;23.00;76.40;;;;;;5091783;23;20024;-57
2022/05/12 07:41:16;;;;;;;4.10;1.15;;;23.00;76.40;;;;;;5099095;23;20202;-59
2022/05/12 07:43:19;;;;;;;3.22;1.67;;;23.00;76.50;;;;;;5096770;23;20233;-57
2022/05/12 07:45:21;;;;;;;5.40;1.60;;;23.00;76.50;;;;;;5068259;23;20079;-54
2022/05/12 07:47:23;;;;;;;4.28;1.40;;;23.00;76.50;;;;;;5090670;23;20032;-56
2022/05/12 07:49:26;;;;;;;4.05;1.40;;;23.10;76.50;;;;;;5099247;23;20187;-56
2022/05/12 07:51:28;;;;;;;2.42;0.95;;;23.00;76.40;;;;;;5091475;23;20467;-59
2022/05/12 07:53:30;;;;;;;2.67;1.25;;;23.10;76.40;;;;;;5093868;23;20155;-59
2022/05/12 07:55:33;;;;;;;4.25;1.33;;;23.10;76.30;;;;;;5073343;23;20033;-59
2022/05/12 07:57:35;;;;;;;3.58;1.63;;;23.10;76.30;;;;;;5067643;23;20533;-59
2022/05/12 07:59:37;;;;;;;5.10;1.60;;;23.10;76.20;;;;;;5065381;23;20457;-58
2022/05/12 08:01:39;;;;;;;2.75;1.45;;;23.10;76.10;;;;;;5096094;23;20472;-60
2022/05/12 08:03:42;;;;;;;3.75;1.42;;;23.10;76.10;;;;;;5071390;23;20029;-59
2022/05/12 08:05:44;;;;;;;3.90;1.27;;;23.10;76.10;;;;;;5066023;23;20187;-58
2022/05/12 08:07:48;;;;;;;5.40;1.80;;;23.10;76.10;;;;;;5065856;23;20040;-58
2022/05/12 08:09:50;;;;;;;3.45;1.25;;;23.10;76.10;;;;;;5071656;23;20104;-59
2022/05/12 08:11:52;;;;;;;1.70;1.00;;;23.10;76.10;;;;;;5094075;23;20532;-59
2022/05/12 08:13:55;;;;;;;4.05;1.27;;;23.10;76.00;;;;;;5093997;23;20104;-60
2022/05/12 08:15:57;;;;;;;3.58;1.33;;;23.10;76.00;;;;;;5095699;23;20036;-59
2022/05/12 08:17:59;;;;;;;2.28;1.00;;;23.10;76.10;;;;;;5067394;23;20060;-59
2022/05/12 08:20:02;;;;;;;1.73;0.82;;;23.10;76.10;;;;;;5092287;23;20442;-58
2022/05/12 08:22:04;;;;;;;2.75;1.42;;;23.00;76.00;;;;;;5089907;23;20052;-61
2022/05/12 08:24:07;;;;;;;2.35;0.95;;;23.10;76.10;;;;;;5093392;23;20060;-59
2022/05/12 08:26:10;;;;;;;3.42;1.27;;;23.10;76.10;;;;;;5040579;23;20048;-59
2022/05/12 08:28:15;;;;;;;;;;;23.10;76.20;;;;;;5087739;23;20028;-60
2022/05/12 08:30:18;;;;;;;4.30;1.60;;;23.10;76.20;;;;;;5094128;23;19919;-44
2022/05/12 08:32:20;;;;;;;4.00;1.20;;;23.10;76.50;;;;;;5096933;23;20412;-53
2022/05/12 08:34:22;;;;;;;8.30;1.70;;;23.10;76.50;;;;;;5092408;23;20032;-54
2022/05/12 08:36:24;;;;;;;6.60;1.55;;;23.10;76.50;;;;;;5092223;23;20055;-50
2022/05/12 08:38:26;;;;;;;4.60;1.70;;;23.10;76.50;;;;;;5070194;23;20036;-50
2022/05/12 08:40:40;;;;;;;4.20;1.50;;;23.10;76.30;;;;;;5092787;23;20878;-50
2022/05/12 08:42:45;;;;;;;6.00;1.50;;;23.10;76.40;;;;;;5093044;23;20028;-51
2022/05/12 08:44:48;;;;;;;4.45;1.60;;;23.20;76.40;;;;;;5093957;23;20031;-49
2022/05/12 08:46:55;;;;;;;5.93;1.73;;;23.10;76.20;;;;;;5095506;23;20503;-55
2022/05/12 08:49:10;;;;;;;3.63;1.30;;;23.20;76.20;;;;;;5101638;23;20021;-50
2022/05/12 08:51:17;;;;;;;6.18;1.58;;;23.20;76.20;;;;;;5100525;23;20480;-58
2022/05/12 08:53:42;;;;;;;4.30;1.60;;;23.20;76.20;;;;;;5141479;23;20017;-50
2022/05/12 08:55:51;;;;;;;5.00;1.33;;;23.20;76.10;;;;;;5132124;23;20029;-47
2022/05/12 08:58:07;;;;;;;3.55;1.55;;;23.20;76.00;;;;;;5138351;23;20071;-48
2022/05/12 09:00:15;;;;;;;4.00;1.70;;;23.20;76.00;;;;;;5102014;23;20109;-54
2022/05/12 09:02:39;;;;;;;2.78;1.52;;;23.20;76.10;;;;;;5093938;23;20032;-51
2022/05/12 09:05:07;;;;;;;2.42;1.45;;;23.30;76.10;;;;;;5096033;23;20454;-56
2022/05/12 09:07:37;;;;;;;3.40;1.60;;;23.30;76.00;;;;;;5096979;23;20475;-49
2022/05/12 09:10:00;;;;;;;3.63;1.60;;;23.30;75.70;;;;;;5096653;23;20139;-50
2022/05/12 09:12:38;;;;;;;3.10;1.40;;;23.20;75.50;;;;;;5099961;23;20527;-51
2022/05/12 09:15:01;;;;;;;3.63;1.42;;;23.30;75.50;;;;;;5098662;23;20182;-52
2022/05/12 09:17:04;;;;;;;1.95;1.25;;;23.20;75.40;;;;;;5096643;23;20301;-51
2022/05/12 09:19:07;;;;;;;4.03;1.50;;;23.20;75.30;;;;;;5100316;23;20132;-53
2022/05/12 09:21:23;;;;;;;3.75;1.52;;;23.20;75.20;;;;;;5093862;23;20384;-50
2022/05/12 09:23:25;;;;;;;3.00;1.38;;;23.20;75.20;;;;;;5094577;23;20389;-51
2022/05/12 09:25:46;;;;;;;3.22;1.77;;;23.20;75.10;;;;;;5090073;23;20036;-52
2022/05/12 09:27:48;;;;;;;2.88;1.58;;;23.20;75.30;;;;;;5085033;23;20032;-52
2022/05/12 09:29:51;;;;;;;2.65;1.50;;;23.20;75.70;;;;;;5088663;23;20024;-55
2022/05/12 09:31:53;;;;;;;;;;;23.20;75.90;;;;;;5095142;23;20552;-51
2022/05/12 09:34:06;;;;;;;2.72;1.40;;;23.10;76.00;;;;;;5092425;23;20317;-52
2022/05/12 09:36:15;;;;;;;3.60;1.73;;;23.10;76.10;;;;;;5091612;23;20787;-51
2022/05/12 09:38:26;;;;;;;2.58;1.10;;;23.20;76.20;;;;;;5089113;23;20060;-52
2022/05/12 09:40:35;;;;;;;2.53;1.27;;;23.20;76.30;;;;;;5089081;23;20028;-53
2022/05/12 09:42:41;;;;;;;3.05;1.13;;;23.10;76.20;;;;;;5061037;23;20028;-54
2022/05/12 09:45:01;;;;;;;2.17;1.15;;;23.20;76.30;;;;;;5087653;23;20040;-56
2022/05/12 09:47:13;;;;;;;5.30;1.73;;;23.20;76.30;;;;;;5064340;23;20121;-56
2022/05/12 09:49:21;;;;;;;5.97;1.70;;;23.20;76.20;;;;;;5088831;23;20066;-52
2022/05/12 09:51:29;;;;;;;3.22;1.50;;;23.20;76.20;;;;;;5090513;23;20025;-55
2022/05/12 09:53:32;;;;;;;2.85;1.25;;;23.10;76.20;;;;;;5089580;23;20076;-53
2022/05/12 09:55:39;;;;;;;6.93;1.70;;;23.20;76.30;;;;;;5065537;23;20425;-52
2022/05/12 09:57:50;;;;;;;6.03;1.52;;;23.10;76.60;;;;;;5092181;23;20028;-57
2022/05/12 09:59:58;;;;;;;6.70;1.55;;;23.10;76.50;;;;;;5092010;23;20726;-56
2022/05/12 10:02:05;;;;;;;3.90;1.50;;;23.10;76.60;;;;;;5062895;23;20173;-57
2022/05/12 10:09:21;;;;;;;6.35;1.95;;;23.20;76.70;;;;;;5089268;23;20433;-57
2022/05/12 10:11:23;;;;;;;4.57;1.30;;;23.20;76.60;;;;;;5088003;23;20727;-55
2022/05/12 10:13:36;;;;;;;8.07;1.58;;;23.20;76.60;;;;;;5085334;23;20031;-53
2022/05/12 10:15:41;;;;;;;3.97;1.27;;;23.20;76.70;;;;;;5085345;23;20413;-54
2022/05/12 10:18:08;;;;;;;2.90;1.30;;;23.20;76.70;;;;;;5060833;23;20817;-52
2022/05/12 10:20:22;;;;;;;2.17;1.23;;;23.20;76.70;;;;;;4997234;23;20025;-56
2022/05/12 10:22:46;;;;;;;4.28;2.08;;;23.30;76.70;;;;;;5092263;23;20512;-58
2022/05/12 10:25:07;;;;;;;4.93;1.60;;;23.20;76.70;;;;;;5090736;23;20040;-57
2022/05/12 10:27:19;;;;;;;4.18;1.35;;;23.30;76.70;;;;;;5085965;23;20039;-57
2022/05/12 10:29:53;;;;;;;3.47;1.40;;;23.30;76.80;;;;;;5064624;23;20036;-55
2022/05/12 10:32:05;;;;;;;3.30;1.40;;;23.30;76.80;;;;;;5093752;23;20069;-57
2022/05/12 10:34:44;;;;;;;5.95;1.95;;;23.30;76.90;;;;;;5094479;23;20346;-54
2022/05/12 10:37:07;;;;;;;5.50;1.48;;;23.30;76.70;;;;;;5093954;23;20033;-58
2022/05/12 10:39:44;;;;;;;2.20;1.30;;;23.30;76.70;;;;;;5088561;23;20436;-57
2022/05/12 10:41:49;;;;;;;2.75;1.33;;;23.30;76.70;;;;;;5095041;23;20133;-55
2022/05/12 10:44:21;;;;;;;6.35;1.45;;;23.30;76.80;;;;;;5091697;23;20033;-53
2022/05/12 10:47:04;;;;;;;4.95;1.80;;;23.30;76.90;;;;;;5089877;23;20103;-50
2022/05/12 10:49:23;;;;;;;5.10;1.58;;;23.30;77.10;;;;;;5091092;23;20100;-48
2022/05/12 10:51:49;;;;;;;5.82;1.50;;;23.30;77.10;;;;;;5090292;23;20139;-52
2022/05/12 10:53:54;;;;;;;3.60;1.20;;;23.30;77.00;;;;;;5095555;23;20047;-51
2022/05/12 10:56:24;;;;;;;2.35;1.42;;;23.30;77.00;;;;;;5095591;23;20579;-55
2022/05/12 10:58:56;;;;;;;2.28;1.33;;;23.30;77.00;;;;;;5090501;23;20033;-53
2022/05/12 11:01:16;;;;;;;4.15;1.40;;;23.30;76.90;;;;;;5030391;23;20318;-56
2022/05/12 11:03:27;;;;;;;3.58;1.17;;;23.30;76.90;;;;;;5093929;23;20472;-52
2022/05/12 11:05:45;;;;;;;2.20;1.20;;;23.40;76.90;;;;;;5098196;23;20028;-53
2022/05/12 11:08:20;;;;;;;3.25;1.65;;;23.40;76.80;;;;;;5093723;23;20035;-53
2022/05/12 11:10:48;;;;;;;1.88;1.30;;;23.40;76.70;;;;;;5098725;23;20025;-53
2022/05/12 11:12:55;;;;;;;1.98;0.77;;;23.40;76.80;;;;;;5091274;23;20031;-55